Time;durP1;ratioP1;P1;durP2;ratioP2;P2;SDS_P1;SDS_P2;PMS_P1;PMS_P2;Temp;Humidity;BMP_temperature;BMP_pressure;BME280_temperature;BME280_humidity;BME280_pressure;Samples;Min_cycle;Max_cycle;Signal;HPM_P1;HPM_P2
2021/08/25 00:01:13;;;;;;;5.70;3.90;;;11.50;1.00;;;;;;5001083;28;20571;-57
2021/08/25 00:03:40;;;;;;;4.93;4.17;;;11.50;1.00;;;;;;5001322;28;20468;-57
2021/08/25 00:06:08;;;;;;;7.70;4.50;;;11.40;1.00;;;;;;5001342;28;20523;-55
2021/08/25 00:08:36;;;;;;;5.57;4.30;;;11.40;99.90;;;;;;5001111;28;20448;-58
2021/08/25 00:11:03;;;;;;;7.00;4.50;;;11.40;99.90;;;;;;4993142;28;20529;-58
2021/08/25 00:13:31;;;;;;;7.30;4.70;;;11.40;99.90;;;;;;4989895;28;20500;-58
2021/08/25 00:15:58;;;;;;;6.40;4.40;;;11.50;1.00;;;;;;5001395;28;20550;-58
2021/08/25 00:18:26;;;;;;;5.83;4.43;;;11.40;1.00;;;;;;5000879;28;20464;-58
2021/08/25 00:20:53;;;;;;;5.23;4.73;;;11.40;80.40;;;;;;5000692;28;20496;-57
2021/08/25 00:23:21;;;;;;;6.40;4.60;;;11.40;1.00;;;;;;4999300;28;20980;-57
2021/08/25 00:25:48;;;;;;;5.73;4.37;;;11.30;99.90;;;;;;4990168;28;20492;-55
2021/08/25 00:28:15;;;;;;;5.23;4.73;;;11.20;1.00;;;;;;4999963;28;20499;-58
2021/08/25 00:30:42;;;;;;;6.10;4.67;;;11.20;1.00;;;;;;5000708;28;20908;-57
2021/08/25 00:33:09;;;;;;;7.70;5.07;;;11.20;96.70;;;;;;5000766;28;20882;-58
2021/08/25 00:35:36;;;;;;;6.70;4.60;;;11.10;1.00;;;;;;4998496;28;20496;-57
2021/08/25 00:38:03;;;;;;;5.60;4.53;;;11.10;1.00;;;;;;4989688;28;20917;-58
2021/08/25 00:40:32;;;;;;;5.83;4.40;;;11.10;1.00;;;;;;5000144;28;20524;-56
2021/08/25 00:43:05;;;;;;;5.50;4.20;;;11.10;1.00;;;;;;4999937;28;20856;-58
2021/08/25 00:45:34;;;;;;;7.20;5.43;;;11.10;99.90;;;;;;4999946;28;20898;-58
2021/08/25 00:48:01;;;;;;;7.27;5.37;;;11.10;32.90;;;;;;4996901;28;20475;-55
2021/08/25 00:50:31;;;;;;;9.20;4.93;;;11.10;12.90;;;;;;4999051;28;20537;-58
2021/08/25 00:52:58;;;;;;;6.17;5.20;;;11.00;1.00;;;;;;4995609;28;20532;-57
2021/08/25 00:55:25;;;;;;;9.03;4.90;;;11.00;1.00;;;;;;4999465;28;20473;-55
2021/08/25 00:57:54;;;;;;;5.90;4.60;;;10.90;99.90;;;;;;4997335;28;20815;-58
2021/08/25 01:00:21;;;;;;;5.80;4.57;;;11.00;87.50;;;;;;4999262;28;20603;-57
2021/08/25 01:02:56;;;;;;;5.00;4.50;;;11.00;1.00;;;;;;4987216;28;20470;-58
2021/08/25 01:05:29;;;;;;;4.67;4.00;;;10.90;99.90;;;;;;4982948;28;20980;-58
2021/08/25 01:07:58;;;;;;;6.00;5.43;;;10.90;1.00;;;;;;4995580;28;20504;-58
2021/08/25 01:10:27;;;;;;;7.13;5.63;;;10.90;99.90;;;;;;4995954;28;20472;-58
2021/08/25 01:47:25;;;;;;;6.50;5.90;;;10.50;99.90;;;;;;5335253;23;20439;-57
2021/08/25 01:49:53;;;;;;;7.73;5.10;;;10.50;99.90;;;;;;4996743;28;20457;-59
2021/08/25 01:52:20;;;;;;;5.00;4.50;;;10.50;99.90;;;;;;4998548;28;20913;-59
2021/08/25 01:54:48;;;;;;;5.60;5.00;;;10.50;99.90;;;;;;4998646;28;20473;-60
2021/08/25 01:57:15;;;;;;;6.07;4.83;;;10.40;99.90;;;;;;4993629;28;20808;-59
2021/08/25 01:59:42;;;;;;;6.83;4.70;;;10.40;99.90;;;;;;4995265;28;20531;-60
2021/08/25 02:02:10;;;;;;;5.73;4.80;;;10.40;1.00;;;;;;4996634;28;20547;-58
2021/08/25 02:04:38;;;;;;;5.13;4.43;;;10.40;1.00;;;;;;4995252;28;20465;-58
2021/08/25 02:07:05;;;;;;;7.00;4.90;;;10.30;99.90;;;;;;4996098;28;20881;-58
2021/08/25 02:09:33;;;;;;;6.10;4.63;;;10.30;17.90;;;;;;4994193;28;20464;-58
2021/08/25 02:12:00;;;;;;;8.07;4.43;;;10.30;99.90;;;;;;4990930;28;20565;-59
2021/08/25 02:14:27;;;;;;;4.60;4.20;;;10.30;1.00;;;;;;4993047;28;20501;-59
2021/08/25 02:16:53;;;;;;;5.90;4.70;;;10.20;99.90;;;;;;4996393;28;20497;-57
2021/08/25 02:53:46;;;;;;;8.50;5.37;;;9.90;99.90;;;;;;4955608;23;20818;-59
2021/08/25 02:56:13;;;;;;;6.37;4.60;;;9.90;99.90;;;;;;4997415;28;20492;-59
2021/08/25 02:58:40;;;;;;;6.43;4.50;;;9.80;99.90;;;;;;4996958;28;20464;-59
2021/08/25 03:01:07;;;;;;;5.37;4.73;;;9.80;99.90;;;;;;4996633;28;20529;-59
2021/08/25 03:03:34;;;;;;;6.97;5.63;;;9.80;99.90;;;;;;4997218;28;20828;-59
2021/08/25 03:06:01;;;;;;;7.83;4.87;;;9.80;99.90;;;;;;4985484;28;20455;-55
2021/08/25 03:08:28;;;;;;;6.30;5.13;;;9.80;99.90;;;;;;4992284;28;20498;-57
2021/08/25 03:10:56;;;;;;;6.07;4.73;;;9.80;99.90;;;;;;4996474;28;20472;-55
2021/08/25 03:13:23;;;;;;;6.57;4.80;;;9.70;99.90;;;;;;4983018;28;20506;-55
2021/08/25 03:15:50;;;;;;;6.67;5.03;;;9.70;99.90;;;;;;4997342;28;20841;-57
2021/08/25 03:18:17;;;;;;;5.77;5.13;;;9.80;99.90;;;;;;4993809;28;20499;-57
2021/08/25 03:20:44;;;;;;;5.93;5.30;;;9.70;99.90;;;;;;4996619;28;20555;-56
2021/08/25 03:23:11;;;;;;;5.67;4.60;;;9.80;99.90;;;;;;4996237;28;20751;-57
2021/08/25 03:25:38;;;;;;;7.97;5.77;;;9.80;99.90;;;;;;4994870;28;20500;-59
2021/08/25 03:28:06;;;;;;;7.53;5.07;;;9.70;99.90;;;;;;4997676;28;20527;-58
2021/08/25 03:30:33;;;;;;;6.60;4.87;;;9.70;99.90;;;;;;4989081;28;20742;-59
2021/08/25 03:33:05;;;;;;;7.43;5.17;;;9.70;99.90;;;;;;4995457;28;20508;-59
2021/08/25 03:35:32;;;;;;;7.00;4.70;;;9.70;99.90;;;;;;4993864;28;20476;-59
2021/08/25 03:37:59;;;;;;;6.03;4.40;;;9.70;99.90;;;;;;4996807;28;20468;-59
2021/08/25 03:40:26;;;;;;;5.50;4.93;;;9.70;99.90;;;;;;4997165;28;20507;-59
2021/08/25 03:42:53;;;;;;;5.90;5.07;;;9.70;99.90;;;;;;4997514;28;20504;-59
2021/08/25 03:45:21;;;;;;;8.50;5.53;;;9.60;99.90;;;;;;4997632;28;20465;-59
2021/08/25 03:47:48;;;;;;;6.83;5.70;;;9.50;99.90;;;;;;4997705;28;20524;-60
2021/08/25 03:50:15;;;;;;;7.60;5.40;;;9.50;99.90;;;;;;4997655;28;20461;-59
2021/08/25 03:52:42;;;;;;;16.80;5.70;;;9.50;99.90;;;;;;4997269;28;20865;-59
2021/08/25 03:55:10;;;;;;;9.60;5.20;;;9.50;99.90;;;;;;4997109;28;20465;-59
2021/08/25 03:57:37;;;;;;;6.90;5.07;;;9.50;99.90;;;;;;4997441;28;20465;-56
2021/08/25 04:00:04;;;;;;;6.57;5.00;;;9.50;99.90;;;;;;4997537;28;20524;-59
2021/08/25 04:02:33;;;;;;;5.10;4.60;;;9.50;99.90;;;;;;4997252;28;20739;-59
2021/08/25 04:05:00;;;;;;;6.33;5.43;;;9.40;99.90;;;;;;4997321;28;20461;-58
2021/08/25 04:07:27;;;;;;;5.50;4.90;;;9.50;99.90;;;;;;4997432;28;20809;-59
2021/08/25 04:09:54;;;;;;;7.87;5.47;;;9.50;99.90;;;;;;4997733;28;20512;-59
2021/08/25 04:12:21;;;;;;;6.40;5.67;;;9.50;99.90;;;;;;4997394;28;20489;-58
2021/08/25 04:14:48;;;;;;;6.30;4.93;;;9.50;99.90;;;;;;4979509;28;20489;-59
2021/08/25 04:17:14;;;;;;;7.70;4.67;;;9.40;99.90;;;;;;4977931;28;20924;-60
2021/08/25 04:19:43;;;;;;;6.83;5.00;;;9.40;99.90;;;;;;4978468;28;20890;-60
2021/08/25 04:22:10;;;;;;;9.23;5.03;;;9.40;99.90;;;;;;4979959;28;20489;-60
2021/08/25 04:24:37;;;;;;;5.80;4.50;;;9.30;99.90;;;;;;4992102;28;20571;-60
2021/08/25 04:27:04;;;;;;;6.70;4.90;;;9.40;99.90;;;;;;5001290;28;20469;-60
2021/08/25 04:29:31;;;;;;;7.30;5.60;;;9.30;99.90;;;;;;5001075;28;20520;-59
2021/08/25 04:31:58;;;;;;;7.13;5.70;;;9.30;99.90;;;;;;5000918;28;20485;-60
2021/08/25 04:34:25;;;;;;;6.77;5.00;;;9.30;99.90;;;;;;4999278;28;20492;-58
2021/08/25 04:36:54;;;;;;;7.87;5.63;;;9.30;99.90;;;;;;4999013;28;20493;-58
2021/08/25 04:39:21;;;;;;;7.83;4.93;;;9.30;99.90;;;;;;5000846;28;20464;-59
2021/08/25 04:41:48;;;;;;;5.57;4.67;;;9.30;99.90;;;;;;5000037;28;20488;-59
2021/08/25 04:44:17;;;;;;;7.07;5.53;;;9.40;99.90;;;;;;4999989;28;20523;-60
2021/08/25 04:46:44;;;;;;;5.47;4.87;;;9.30;99.90;;;;;;4999440;28;20547;-59
2021/08/25 04:49:11;;;;;;;7.80;5.27;;;9.30;99.90;;;;;;4999920;28;20801;-59
2021/08/25 04:51:38;;;;;;;6.90;4.63;;;9.40;99.90;;;;;;4982214;28;20517;-59
2021/08/25 04:54:06;;;;;;;7.83;5.80;;;9.40;99.90;;;;;;4980483;28;20529;-60
2021/08/25 04:56:33;;;;;;;5.57;4.83;;;9.40;99.90;;;;;;4980315;28;20524;-59
2021/08/25 04:59:00;;;;;;;8.50;5.30;;;9.50;99.90;;;;;;4980718;28;20494;-59
2021/08/25 05:01:27;;;;;;;5.93;4.90;;;9.50;99.90;;;;;;5000208;28;20551;-60
2021/08/25 05:03:54;;;;;;;8.77;5.97;;;9.50;99.90;;;;;;5000238;28;20837;-60
2021/08/25 05:06:21;;;;;;;6.27;5.67;;;9.60;99.90;;;;;;5000682;28;20523;-60
2021/08/25 05:08:48;;;;;;;11.33;5.40;;;9.60;99.90;;;;;;5000041;28;20464;-59
2021/08/25 05:11:17;;;;;;;6.53;5.30;;;9.60;99.90;;;;;;4981954;28;20461;-60
2021/08/25 05:13:46;;;;;;;5.67;4.83;;;9.70;99.90;;;;;;4980163;28;20765;-58
2021/08/25 05:16:17;;;;;;;6.00;4.83;;;9.80;99.90;;;;;;4999772;28;20527;-58
2021/08/25 05:18:46;;;;;;;6.80;5.33;;;9.80;99.90;;;;;;4999199;28;20913;-60
2021/08/25 05:21:16;;;;;;;7.30;4.67;;;9.90;99.90;;;;;;4980502;28;20572;-60
2021/08/25 05:23:43;;;;;;;5.47;4.97;;;9.90;99.90;;;;;;4979972;28;20489;-60
2021/08/25 05:26:14;;;;;;;7.80;4.37;;;9.90;99.90;;;;;;4980758;28;20527;-59
2021/08/25 05:28:44;;;;;;;6.07;5.37;;;9.90;99.90;;;;;;4996197;28;20465;-60
2021/08/25 05:31:16;;;;;;;6.63;5.70;;;9.90;99.90;;;;;;4999296;28;20435;-61
2021/08/25 05:33:45;;;;;;;9.50;6.00;;;10.00;99.90;;;;;;4996757;28;20497;-60
2021/08/25 05:36:12;;;;;;;6.83;6.17;;;10.00;99.90;;;;;;4984950;28;20520;-59
2021/08/25 05:38:39;;;;;;;9.83;5.57;;;10.10;99.90;;;;;;4995812;28;20496;-60
2021/08/25 05:41:06;;;;;;;9.27;4.83;;;10.20;99.90;;;;;;4978030;28;20918;-58
2021/08/25 05:43:33;;;;;;;6.93;5.40;;;10.30;99.90;;;;;;4977940;28;20501;-61
2021/08/25 05:46:02;;;;;;;6.80;5.17;;;10.30;99.90;;;;;;4978714;28;20560;-60
2021/08/25 05:48:29;;;;;;;8.13;5.50;;;10.40;99.90;;;;;;4979073;28;20556;-60
2021/08/25 05:50:56;;;;;;;7.10;5.60;;;10.50;99.90;;;;;;4979227;28;20436;-59
2021/08/25 05:53:23;;;;;;;7.13;6.30;;;10.60;99.90;;;;;;4979591;28;20841;-61
2021/08/25 05:55:50;;;;;;;9.77;6.87;;;10.60;99.90;;;;;;4979475;28;20502;-61
2021/08/25 05:58:17;;;;;;;8.67;6.97;;;10.60;99.90;;;;;;4979208;28;20498;-61
2021/08/25 06:00:44;;;;;;;7.73;6.80;;;10.80;99.90;;;;;;4979583;28;20764;-61
2021/08/25 06:03:12;;;;;;;12.23;7.33;;;10.90;99.90;;;;;;4979695;28;20466;-61
2021/08/25 06:05:39;;;;;;;10.10;7.13;;;11.10;99.90;;;;;;4979947;28;20505;-61
2021/08/25 06:08:06;;;;;;;10.43;7.50;;;11.20;99.90;;;;;;4979750;28;20829;-59
2021/08/25 06:10:36;;;;;;;12.23;7.73;;;11.40;99.90;;;;;;4985149;28;20540;-61
2021/08/25 06:13:10;;;;;;;18.57;8.13;;;11.50;99.90;;;;;;4981355;28;20461;-61
2021/08/25 06:15:37;;;;;;;17.23;8.50;;;11.50;99.90;;;;;;4981506;28;20729;-61
2021/08/25 06:55:22;;;;;;;13.43;8.40;;;14.90;99.90;;;;;;4986544;28;20493;-58
2021/08/25 07:32:28;;;;;;;10.00;7.93;;;18.50;99.90;;;;;;3611153;23;20496;-58
2021/08/25 07:34:55;;;;;;;18.10;8.03;;;18.70;99.90;;;;;;4992847;28;20544;-56
2021/08/25 07:37:22;;;;;;;14.70;8.80;;;18.50;99.10;;;;;;4988733;28;20889;-56
2021/08/25 07:39:49;;;;;;;12.27;8.60;;;18.80;99.90;;;;;;4998114;28;20499;-56
2021/08/25 07:42:19;;;;;;;11.33;8.33;;;19.10;99.90;;;;;;4997789;28;20489;-56
2021/08/25 07:44:46;;;;;;;15.43;9.10;;;19.60;99.90;;;;;;4997276;28;20500;-58
2021/08/25 07:47:13;;;;;;;13.07;8.10;;;19.90;98.50;;;;;;4997383;28;20469;-59
2021/08/25 07:49:41;;;;;;;14.10;7.97;;;20.10;96.80;;;;;;4997615;28;20519;-56
2021/08/25 07:52:09;;;;;;;12.70;8.17;;;20.30;93.70;;;;;;4997155;28;20936;-59
2021/08/25 07:54:36;;;;;;;13.00;7.30;;;20.40;92.90;;;;;;4997593;28;20885;-56
2021/08/25 07:57:03;;;;;;;14.60;7.47;;;20.60;88.80;;;;;;4999542;28;20497;-57
2021/08/25 07:59:30;;;;;;;11.47;7.70;;;20.90;87.00;;;;;;4999601;28;20563;-53
2021/08/25 08:02:00;;;;;;;13.87;7.37;;;21.00;96.10;;;;;;4991343;28;20933;-57
2021/08/25 08:04:27;;;;;;;26.70;8.13;;;21.40;90.50;;;;;;4993534;28;20457;-56
2021/08/25 08:06:55;;;;;;;12.03;7.73;;;21.80;82.30;;;;;;5001324;28;20465;-56
2021/08/25 08:09:25;;;;;;;12.10;7.07;;;21.90;80.80;;;;;;4997661;28;20526;-53
2021/08/25 08:11:52;;;;;;;11.57;7.60;;;22.10;73.80;;;;;;4994267;28;20840;-53
2021/08/25 08:14:19;;;;;;;13.43;6.90;;;22.40;72.30;;;;;;5001653;28;20531;-50
2021/08/25 08:16:50;;;;;;;10.70;6.40;;;22.70;70.20;;;;;;5000946;28;20464;-54
2021/08/25 08:19:21;;;;;;;12.50;5.80;;;22.50;65.20;;;;;;5001057;28;20472;-52
2021/08/25 08:21:50;;;;;;;10.13;6.40;;;22.80;63.50;;;;;;5001009;28;20500;-47
2021/08/25 08:24:18;;;;;;;14.13;6.37;;;23.00;61.70;;;;;;4992881;28;20489;-55
2021/08/25 08:26:49;;;;;;;11.30;6.17;;;23.30;59.60;;;;;;4988922;28;20504;-49
2021/08/25 08:29:19;;;;;;;9.30;5.23;;;23.50;63.10;;;;;;4993918;28;20811;-52
2021/08/25 08:31:46;;;;;;;10.33;6.00;;;24.00;58.00;;;;;;4992883;28;20994;-50
2021/08/25 08:34:13;;;;;;;11.27;6.40;;;24.00;56.60;;;;;;4993505;28;20847;-50
2021/08/25 08:36:40;;;;;;;7.50;5.10;;;24.30;54.20;;;;;;4990367;28;20505;-53
2021/08/25 08:39:07;;;;;;;8.40;5.40;;;23.70;52.20;;;;;;4993272;28;20588;-55
2021/08/25 08:41:44;;;;;;;5.70;5.10;;;23.10;55.10;;;;;;4999496;28;20492;-50
2021/08/25 08:44:12;;;;;;;5.57;4.77;;;23.70;52.00;;;;;;5000736;28;20459;-54
2021/08/25 08:46:41;;;;;;;5.63;4.40;;;23.80;51.80;;;;;;5000396;28;20496;-49
2021/08/25 08:49:09;;;;;;;5.10;4.60;;;23.80;55.30;;;;;;4993421;28;20500;-52
2021/08/25 08:51:38;;;;;;;5.10;4.70;;;24.30;54.30;;;;;;4994887;28;20456;-56
2021/08/25 08:54:08;;;;;;;5.57;5.07;;;24.30;49.80;;;;;;5000763;28;20471;-56
2021/08/25 08:56:35;;;;;;;5.60;5.10;;;24.30;50.70;;;;;;5000149;28;20531;-53
2021/08/25 08:59:07;;;;;;;4.77;4.37;;;24.80;50.50;;;;;;4992803;28;20493;-56
2021/08/25 09:01:35;;;;;;;5.03;4.60;;;24.90;47.20;;;;;;4997278;28;20543;-50
2021/08/25 09:04:25;;;;;;;4.73;4.33;;;24.70;47.10;;;;;;4999492;28;20465;-53
2021/08/25 09:06:52;;;;;;;5.90;4.40;;;24.70;49.00;;;;;;5000154;28;20460;-53
2021/08/25 09:09:19;;;;;;;5.53;4.23;;;24.30;47.20;;;;;;4998841;28;20472;-50
2021/08/25 09:11:50;;;;;;;7.20;4.93;;;24.50;48.10;;;;;;5000078;28;20495;-52
2021/08/25 09:14:19;;;;;;;5.00;4.50;;;24.80;47.00;;;;;;5000404;28;20492;-54
2021/08/25 09:16:47;;;;;;;5.67;5.07;;;24.90;47.30;;;;;;4999851;28;20928;-47
2021/08/25 09:19:16;;;;;;;5.47;4.70;;;25.10;46.40;;;;;;4999687;28;20564;-51
2021/08/25 09:21:45;;;;;;;5.43;4.93;;;25.20;47.00;;;;;;4989678;28;20490;-49
2021/08/25 09:24:16;;;;;;;6.60;4.50;;;25.10;46.00;;;;;;4993057;28;20549;-50
2021/08/25 09:27:08;;;;;;;6.03;5.43;;;25.40;45.40;;;;;;4999972;28;20809;-50
2021/08/25 09:29:41;;;;;;;5.03;4.50;;;25.80;45.10;;;;;;4999448;28;20456;-54
2021/08/25 09:32:18;;;;;;;5.03;3.93;;;25.50;44.60;;;;;;4994042;28;20489;-50
2021/08/25 09:34:47;;;;;;;5.03;4.53;;;25.50;46.90;;;;;;4979874;28;20493;-49
2021/08/25 09:37:16;;;;;;;6.03;4.53;;;25.20;46.60;;;;;;4988236;28;20710;-52
2021/08/25 09:39:44;;;;;;;5.53;5.03;;;25.10;44.50;;;;;;5000007;28;20471;-49
2021/08/25 09:42:17;;;;;;;5.60;5.10;;;24.60;45.80;;;;;;4999582;28;20836;-48
2021/08/25 09:44:46;;;;;;;5.83;4.33;;;24.90;45.50;;;;;;4992810;28;20475;-51
2021/08/25 09:47:13;;;;;;;5.20;4.70;;;24.50;45.50;;;;;;4999487;28;20461;-53
2021/08/25 09:49:40;;;;;;;6.30;4.43;;;24.50;45.50;;;;;;4986607;28;20494;-48
2021/08/25 09:52:07;;;;;;;5.80;5.20;;;24.10;45.90;;;;;;4989396;28;20536;-49
2021/08/25 09:54:34;;;;;;;5.77;5.10;;;24.80;47.10;;;;;;4997663;28;20842;-56
2021/08/25 09:57:01;;;;;;;5.47;4.97;;;25.50;46.30;;;;;;4999238;28;20469;-53
2021/08/25 09:59:29;;;;;;;5.90;5.30;;;24.90;44.60;;;;;;4999284;28;20805;-54
2021/08/25 10:02:03;;;;;;;6.47;4.70;;;24.40;46.00;;;;;;4998250;28;20860;-49
2021/08/25 10:04:34;;;;;;;7.77;5.63;;;24.80;46.80;;;;;;4998929;28;20523;-52
2021/08/25 10:07:06;;;;;;;6.27;5.53;;;26.00;44.90;;;;;;4988602;28;20466;-51
2021/08/25 10:09:36;;;;;;;7.50;5.40;;;26.20;43.50;;;;;;4991128;28;20546;-52
2021/08/25 10:12:03;;;;;;;5.63;5.13;;;25.50;43.90;;;;;;4989423;28;20454;-56
2021/08/25 10:14:31;;;;;;;6.27;5.50;;;25.50;44.00;;;;;;4987914;28;20464;-52
2021/08/25 10:17:02;;;;;;;9.07;5.97;;;25.20;45.70;;;;;;4997347;28;20469;-53
2021/08/25 10:19:34;;;;;;;6.80;5.70;;;26.10;46.20;;;;;;4989317;28;20782;-53
2021/08/25 10:22:04;;;;;;;6.23;5.63;;;25.70;44.80;;;;;;4987582;28;20493;-56
2021/08/25 10:25:03;;;;;;;6.30;5.70;;;25.00;44.80;;;;;;4986921;28;20503;-50
2021/08/25 10:27:33;;;;;;;7.00;6.30;;;24.50;47.20;;;;;;4986046;28;20512;-52
2021/08/25 10:30:09;;;;;;;6.40;5.80;;;25.60;47.90;;;;;;4989097;28;20584;-51
2021/08/25 10:32:39;;;;;;;6.60;5.90;;;26.40;46.60;;;;;;4986613;28;20940;-55
2021/08/25 10:35:27;;;;;;;10.80;5.97;;;25.90;46.40;;;;;;4989515;28;20449;-53
2021/08/25 10:38:14;;;;;;;6.43;5.73;;;26.40;45.50;;;;;;4987410;28;20469;-52
2021/08/25 10:40:42;;;;;;;8.43;6.10;;;25.90;44.20;;;;;;4995220;28;20898;-52
2021/08/25 10:43:32;;;;;;;7.03;6.43;;;25.60;44.30;;;;;;4998379;28;20889;-54
2021/08/25 10:45:59;;;;;;;7.20;6.50;;;25.80;45.70;;;;;;4998727;28;20493;-50
2021/08/25 10:48:51;;;;;;;7.10;6.23;;;25.00;43.70;;;;;;4998033;28;20493;-52
2021/08/25 10:51:46;;;;;;;5.80;5.30;;;25.20;47.30;;;;;;4997918;28;20461;-49
2021/08/25 10:54:20;;;;;;;6.60;5.90;;;25.70;44.40;;;;;;4998416;28;20457;-52
2021/08/25 10:56:49;;;;;;;7.20;6.50;;;25.30;44.70;;;;;;4994403;28;20808;-53
2021/08/25 10:59:21;;;;;;;6.60;6.00;;;26.10;46.90;;;;;;4978284;28;20466;-50
2021/08/25 11:01:49;;;;;;;6.90;6.13;;;26.50;43.60;;;;;;4988628;28;20528;-54
2021/08/25 11:04:18;;;;;;;6.77;6.17;;;26.70;44.20;;;;;;4997770;28;20782;-53
2021/08/25 11:06:54;;;;;;;6.47;5.83;;;27.20;45.20;;;;;;4998114;28;20472;-52
2021/08/25 11:09:24;;;;;;;7.30;6.60;;;27.40;42.60;;;;;;4979098;28;20465;-50
2021/08/25 11:12:01;;;;;;;6.80;6.17;;;26.30;42.70;;;;;;4996804;28;20897;-57
2021/08/25 11:14:39;;;;;;;6.40;5.83;;;26.60;42.60;;;;;;4978267;28;20488;-56
2021/08/25 11:17:15;;;;;;;8.80;6.37;;;25.40;42.50;;;;;;4977997;28;20501;-52
2021/08/25 11:19:44;;;;;;;7.17;6.57;;;25.00;44.10;;;;;;4977579;28;20527;-48
2021/08/25 11:22:22;;;;;;;6.70;6.00;;;25.00;43.30;;;;;;4977801;28;20462;-52
2021/08/25 11:24:51;;;;;;;6.80;6.20;;;24.80;43.40;;;;;;4989954;28;20500;-49
2021/08/25 11:27:30;;;;;;;6.20;5.70;;;24.70;44.10;;;;;;4997420;28;20815;-56
2021/08/25 11:30:02;;;;;;;7.47;6.70;;;25.70;45.10;;;;;;4998246;28;20491;-49
2021/08/25 11:32:29;;;;;;;7.27;6.67;;;26.60;43.20;;;;;;4996787;28;20539;-50
2021/08/25 11:34:58;;;;;;;7.03;6.33;;;27.30;41.40;;;;;;4992627;28;20497;-50
2021/08/25 11:37:25;;;;;;;7.83;7.13;;;27.90;41.30;;;;;;4989136;28;20834;-50
2021/08/25 11:40:02;;;;;;;7.37;6.77;;;28.30;39.40;;;;;;4997061;28;20497;-50
2021/08/25 11:42:31;;;;;;;6.93;6.33;;;28.20;40.60;;;;;;4997271;28;20498;-48
2021/08/25 11:45:02;;;;;;;7.70;7.00;;;27.50;40.50;;;;;;4997729;28;20926;-47
2021/08/25 11:47:29;;;;;;;7.67;6.90;;;26.50;43.50;;;;;;4997283;28;20480;-52
2021/08/25 11:49:58;;;;;;;7.50;6.80;;;27.10;44.60;;;;;;4997393;28;20811;-46
2021/08/25 11:52:35;;;;;;;7.43;6.83;;;26.30;42.90;;;;;;4997287;28;20896;-49
2021/08/25 11:55:07;;;;;;;7.50;6.70;;;26.40;45.00;;;;;;4997450;28;20757;-54
2021/08/25 11:57:42;;;;;;;8.10;7.03;;;27.00;45.80;;;;;;4987789;28;20495;-51
2021/08/25 12:00:13;;;;;;;7.80;7.10;;;27.60;44.70;;;;;;4989329;28;20825;-53
2021/08/25 12:02:54;;;;;;;8.00;7.20;;;28.10;43.60;;;;;;4996449;28;20499;-56
2021/08/25 12:05:23;;;;;;;8.40;7.50;;;27.50;43.70;;;;;;4982703;28;20544;-56
2021/08/25 12:08:00;;;;;;;8.70;7.90;;;26.80;42.20;;;;;;4997364;28;20799;-53
2021/08/25 12:10:31;;;;;;;9.00;8.13;;;26.00;43.80;;;;;;4997117;28;20460;-55
2021/08/25 12:13:02;;;;;;;9.47;8.53;;;26.60;45.00;;;;;;4997108;28;20457;-50
2021/08/25 12:15:43;;;;;;;8.83;7.13;;;27.10;43.30;;;;;;4997315;28;20858;-54
2021/08/25 12:18:12;;;;;;;9.83;8.47;;;27.80;44.10;;;;;;4996820;28;20905;-55
2021/08/25 12:20:42;;;;;;;9.70;8.33;;;28.20;41.60;;;;;;4996933;28;20464;-55
2021/08/25 12:23:10;;;;;;;10.00;9.07;;;27.70;41.90;;;;;;4996958;28;20495;-54
2021/08/25 12:25:41;;;;;;;9.20;8.30;;;26.70;44.00;;;;;;4984253;28;20464;-53
2021/08/25 12:28:11;;;;;;;9.50;8.50;;;27.40;43.70;;;;;;4997365;28;20469;-49
2021/08/25 12:30:42;;;;;;;10.60;8.60;;;26.50;43.00;;;;;;4997009;28;20555;-54
2021/08/25 12:33:27;;;;;;;9.50;8.60;;;25.50;44.00;;;;;;4996446;28;20523;-52
2021/08/25 12:35:55;;;;;;;10.03;9.03;;;25.00;45.80;;;;;;4994708;28;20472;-53
2021/08/25 12:38:33;;;;;;;10.90;7.87;;;26.00;46.60;;;;;;4992566;28;20469;-55
2021/08/25 12:41:00;;;;;;;9.23;8.33;;;26.80;43.20;;;;;;4995140;28;20473;-55
2021/08/25 12:43:30;;;;;;;9.47;8.63;;;26.10;45.40;;;;;;4998680;28;21013;-53
2021/08/25 12:45:57;;;;;;;8.63;7.83;;;25.90;45.70;;;;;;5000226;28;20552;-55
2021/08/25 12:48:24;;;;;;;8.73;7.87;;;26.30;44.60;;;;;;4999888;28;20532;-55
2021/08/25 12:50:51;;;;;;;9.10;7.17;;;26.90;42.50;;;;;;5000616;28;20496;-55
2021/08/25 12:53:18;;;;;;;8.97;8.07;;;26.70;41.80;;;;;;4999475;28;20500;-56
2021/08/25 12:55:47;;;;;;;9.40;8.50;;;26.70;44.70;;;;;;4989550;28;20504;-53
2021/08/25 12:58:17;;;;;;;8.70;7.70;;;27.40;42.70;;;;;;4980994;28;20501;-53
2021/08/25 13:00:48;;;;;;;8.90;8.00;;;27.70;41.50;;;;;;4980556;28;20470;-50
2021/08/25 13:38:29;;;;;;;7.63;6.90;;;26.70;44.20;;;;;;3281292;23;20481;-56
2021/08/25 13:40:58;;;;;;;11.40;7.50;;;27.20;43.90;;;;;;4999191;28;20523;-56
2021/08/25 13:43:28;;;;;;;9.07;7.47;;;27.50;43.70;;;;;;4998805;28;20530;-55
2021/08/25 13:45:58;;;;;;;10.20;8.83;;;27.20;44.40;;;;;;4997786;28;20765;-50
2021/08/25 13:48:28;;;;;;;8.90;8.00;;;27.90;44.30;;;;;;4980194;28;20497;-54
2021/08/25 13:50:57;;;;;;;7.70;6.90;;;27.40;44.40;;;;;;4980178;28;20462;-52
2021/08/25 13:53:29;;;;;;;9.10;8.20;;;27.80;43.50;;;;;;4999035;28;20940;-53
2021/08/25 13:55:55;;;;;;;7.73;7.03;;;26.70;42.70;;;;;;4998713;28;20511;-54
2021/08/25 13:58:25;;;;;;;10.60;8.60;;;26.30;43.30;;;;;;4998747;28;20809;-55
2021/08/25 14:00:52;;;;;;;9.30;7.70;;;25.40;44.50;;;;;;4998122;28;20519;-52
2021/08/25 14:03:21;;;;;;;10.10;8.13;;;24.80;45.70;;;;;;4991371;28;20501;-55
2021/08/25 14:05:48;;;;;;;12.30;8.70;;;25.20;46.00;;;;;;4999005;28;20465;-51
2021/08/25 14:08:18;;;;;;;10.07;7.90;;;25.10;45.30;;;;;;4998779;28;20465;-53
2021/08/25 14:10:46;;;;;;;9.00;8.10;;;25.40;45.70;;;;;;4998748;28;20516;-50
2021/08/25 14:13:16;;;;;;;8.27;7.40;;;25.10;44.60;;;;;;4998378;28;20524;-46
2021/08/25 14:15:45;;;;;;;8.90;8.00;;;25.20;45.00;;;;;;4999037;28;20460;-52
2021/08/25 14:18:13;;;;;;;9.00;7.57;;;25.00;47.20;;;;;;4991390;28;20457;-54
2021/08/25 14:20:42;;;;;;;10.27;8.10;;;26.00;46.20;;;;;;4986294;28;20497;-52
2021/08/25 14:23:11;;;;;;;8.33;7.50;;;26.40;46.40;;;;;;4985977;28;20493;-51
2021/08/25 14:25:38;;;;;;;6.63;5.93;;;26.50;45.30;;;;;;4988108;28;20454;-54
2021/08/25 15:02:04;;;;;;;7.17;6.57;;;25.50;46.10;;;;;;4012381;23;20937;-49
2021/08/25 15:04:31;;;;;;;6.43;5.73;;;25.20;47.80;;;;;;4998014;28;20732;-46
2021/08/25 15:06:58;;;;;;;7.60;6.80;;;24.30;47.90;;;;;;4987631;28;20501;-51
2021/08/25 15:09:25;;;;;;;7.27;6.17;;;24.20;49.70;;;;;;4997593;28;20854;-53
2021/08/25 15:11:52;;;;;;;6.90;6.20;;;24.10;49.10;;;;;;4997558;28;20963;-49
2021/08/25 15:14:19;;;;;;;6.80;6.20;;;23.60;49.90;;;;;;4997728;28;20535;-53
2021/08/25 15:16:46;;;;;;;7.17;6.50;;;23.30;50.90;;;;;;4997701;28;20531;-48
2021/08/25 15:19:17;;;;;;;6.77;6.00;;;23.50;51.00;;;;;;4998235;28;20492;-49
2021/08/25 15:21:47;;;;;;;8.23;7.07;;;23.10;50.70;;;;;;4997273;28;20504;-50
2021/08/25 15:24:14;;;;;;;7.37;5.43;;;22.80;51.50;;;;;;4990929;28;20477;-53
2021/08/25 15:26:41;;;;;;;7.70;5.33;;;22.90;52.00;;;;;;4997706;28;20477;-49
2021/08/25 15:29:09;;;;;;;7.23;5.77;;;23.00;52.10;;;;;;4978871;28;20792;-50
2021/08/25 15:31:39;;;;;;;6.33;5.73;;;22.90;51.60;;;;;;4977035;28;20605;-54
2021/08/25 15:34:07;;;;;;;8.37;6.10;;;23.30;51.40;;;;;;4976884;28;20592;-54
2021/08/25 15:36:35;;;;;;;6.00;5.40;;;23.50;50.40;;;;;;4977734;28;20498;-52
2021/08/25 15:39:05;;;;;;;7.60;6.00;;;23.70;50.70;;;;;;4977938;28;20470;-54
2021/08/25 15:41:32;;;;;;;6.60;5.47;;;23.40;50.60;;;;;;4977462;28;20549;-53
2021/08/25 15:43:59;;;;;;;5.80;5.10;;;23.20;50.70;;;;;;4977832;28;20819;-54
2021/08/25 16:19:42;;;;;;;5.97;5.37;;;23.60;52.40;;;;;;4408893;23;20484;-50
2021/08/25 16:22:09;;;;;;;9.10;5.97;;;22.80;53.80;;;;;;4996696;28;20480;-51
2021/08/25 16:24:40;;;;;;;6.60;5.90;;;22.60;54.40;;;;;;4992653;28;20460;-53
2021/08/25 16:27:11;;;;;;;6.20;5.40;;;22.50;53.90;;;;;;4989287;28;20504;-51
2021/08/25 16:29:39;;;;;;;6.20;5.60;;;22.60;54.90;;;;;;4994583;28;20889;-51
2021/08/25 16:32:07;;;;;;;6.80;6.03;;;22.70;54.80;;;;;;4995986;28;20471;-51
2021/08/25 16:34:34;;;;;;;6.57;5.63;;;22.40;55.00;;;;;;4998290;28;20924;-49
2021/08/25 16:37:03;;;;;;;5.10;4.60;;;22.30;55.50;;;;;;4992268;28;20894;-52
2021/08/25 16:39:32;;;;;;;5.70;5.07;;;22.30;55.30;;;;;;4999928;28;20817;-54
2021/08/25 16:41:59;;;;;;;7.23;5.37;;;22.30;55.80;;;;;;5000226;28;20551;-52
2021/08/25 16:44:26;;;;;;;12.30;5.90;;;22.20;55.20;;;;;;4999913;28;20496;-55
2021/08/25 16:47:00;;;;;;;6.77;5.37;;;22.10;54.60;;;;;;4998274;28;20508;-53
2021/08/25 16:49:27;;;;;;;5.83;5.00;;;21.90;54.40;;;;;;4999644;28;20936;-55
2021/08/25 16:51:57;;;;;;;5.97;5.37;;;21.90;54.80;;;;;;4999059;28;20566;-51
2021/08/25 16:54:26;;;;;;;6.30;5.27;;;21.80;55.50;;;;;;5000268;28;20558;-48
2021/08/25 16:56:56;;;;;;;7.37;6.13;;;21.90;54.50;;;;;;4989239;28;20497;-52
2021/08/25 16:59:23;;;;;;;6.87;6.17;;;22.10;54.20;;;;;;4995332;28;20499;-51
2021/08/25 17:01:52;;;;;;;10.00;5.90;;;22.20;53.30;;;;;;5000247;28;20461;-52